createdAt,value
2019-03-19T00:00:58.294Z,1.33
2019-03-19T00:03:28.046Z,1.60
2019-03-19T00:06:01.140Z,1.40
2019-03-19T00:08:30.515Z,1.20
2019-03-19T00:11:00.484Z,1.40
2019-03-19T00:13:30.204Z,1.43
2019-03-19T00:15:59.991Z,1.27
2019-03-19T00:18:31.338Z,1.37
2019-03-19T00:21:01.097Z,1.73
2019-03-19T00:23:30.796Z,1.83
2019-03-19T00:26:00.987Z,1.57
2019-03-19T00:28:30.756Z,1.17
2019-03-19T00:31:00.511Z,1.53
2019-03-19T00:33:31.598Z,1.50
2019-03-19T00:36:01.343Z,1.33
2019-03-19T00:38:31.878Z,1.40
2019-03-19T00:41:01.620Z,1.50
2019-03-19T00:43:31.307Z,1.87
2019-03-19T00:49:19.336Z,1.60
2019-03-19T01:01:15.815Z,2.27
2019-03-19T01:04:04.617Z,2.10
2019-03-19T01:06:53.317Z,2.23
2019-03-19T01:15:52.000Z,1.57
2019-03-19T01:22:04.032Z,2.60
2019-03-19T01:36:58.803Z,1.73
2019-03-19T01:39:39.981Z,2.37
2019-03-19T01:42:21.234Z,2.00
2019-03-19T01:45:02.742Z,1.80
2019-03-19T01:47:44.338Z,2.27
2019-03-19T02:08:40.214Z,2.43
2019-03-19T02:11:09.997Z,2.80
2019-03-19T02:13:58.793Z,2.80
2019-03-19T02:16:59.414Z,2.60
2019-03-19T02:25:47.940Z,3.30
2019-03-19T02:31:36.175Z,3.57
2019-03-19T02:34:45.286Z,3.20
2019-03-19T02:37:34.350Z,3.20
2019-03-19T02:40:24.065Z,3.13
2019-03-19T02:43:12.780Z,3.93
2019-03-19T02:49:09.769Z,3.73
2019-03-19T02:58:07.640Z,3.67
2019-03-19T03:00:56.459Z,3.50
2019-03-19T03:03:26.688Z,3.63
2019-03-19T03:05:56.751Z,4.70
2019-03-19T03:08:45.448Z,3.57
2019-03-19T03:11:16.293Z,4.20
2019-03-19T03:13:45.967Z,4.47
2019-03-19T03:16:15.729Z,3.90
2019-03-19T03:19:04.775Z,3.57
2019-03-19T03:22:05.415Z,4.07
2019-03-19T03:24:44.502Z,3.63
2019-03-19T03:30:27.675Z,3.70
2019-03-19T03:33:04.176Z,4.00
2019-03-19T03:38:53.589Z,4.57
2019-03-19T03:41:24.419Z,4.57
2019-03-19T03:44:06.070Z,4.83
2019-03-19T03:47:15.438Z,4.73
2019-03-19T03:53:03.423Z,4.57
2019-03-19T03:55:52.113Z,4.80
2019-03-19T03:58:40.965Z,5.40
2019-03-19T04:04:30.231Z,4.60
2019-03-19T04:07:00.022Z,4.93
2019-03-19T04:09:29.739Z,5.50
2019-03-19T04:12:18.530Z,5.73
2019-03-19T04:15:07.479Z,6.20
2019-03-19T04:17:56.460Z,6.00
2019-03-19T04:20:46.575Z,6.40
2019-03-19T04:23:35.255Z,6.53
2019-03-19T04:26:04.943Z,7.23
2019-03-19T04:28:53.640Z,7.33
2019-03-19T04:31:42.286Z,7.33
2019-03-19T04:34:31.035Z,6.80
2019-03-19T04:37:00.877Z,7.10
2019-03-19T04:39:49.613Z,7.60
2019-03-19T04:42:30.975Z,8.00
2019-03-19T04:47:41.447Z,8.50
2019-03-19T04:50:30.194Z,8.10
2019-03-19T04:53:18.883Z,7.97
2019-03-19T04:59:06.787Z,8.10
2019-03-19T05:01:55.506Z,7.50
2019-03-19T05:04:44.238Z,6.53
2019-03-19T05:07:25.858Z,7.43
2019-03-19T05:10:05.070Z,7.60
2019-03-19T05:12:53.831Z,7.50
2019-03-19T05:18:31.606Z,7.23
2019-03-19T05:21:21.741Z,8.00
2019-03-19T05:24:10.637Z,8.30
2019-03-19T05:26:40.387Z,7.37
2019-03-19T05:29:10.539Z,7.03
2019-03-19T05:31:40.276Z,8.07
2019-03-19T05:34:10.454Z,7.70
2019-03-19T05:36:40.444Z,8.03
2019-03-19T05:39:10.290Z,7.70
2019-03-19T05:41:40.077Z,6.80
2019-03-19T05:44:10.129Z,7.43
2019-03-19T05:46:40.758Z,7.43
2019-03-19T05:49:10.453Z,7.27
2019-03-19T05:51:40.468Z,7.93
2019-03-19T05:54:10.276Z,8.30
2019-03-19T05:56:39.991Z,6.90
2019-03-19T05:59:11.233Z,7.73
2019-03-19T06:01:41.039Z,7.87
2019-03-19T06:04:10.765Z,8.13
2019-03-19T06:06:40.785Z,10.63
2019-03-19T06:09:10.831Z,11.93
2019-03-19T06:11:40.557Z,9.33
2019-03-19T06:14:10.634Z,8.53
2019-03-19T06:16:40.399Z,8.17
2019-03-19T06:19:10.452Z,8.20
2019-03-19T06:21:40.512Z,8.03
2019-03-19T06:24:10.444Z,8.17
2019-03-19T06:26:40.153Z,7.47
2019-03-19T06:29:10.362Z,7.93
2019-03-19T06:31:40.251Z,7.97
2019-03-19T06:34:10.049Z,8.27
2019-03-19T06:36:40.066Z,7.73
2019-03-19T06:39:10.071Z,8.43
2019-03-19T06:41:39.768Z,7.40
2019-03-19T06:44:10.028Z,8.60
2019-03-19T06:46:39.836Z,7.83
2019-03-19T06:49:10.614Z,8.30
2019-03-19T06:51:41.713Z,8.03
2019-03-19T06:54:11.481Z,7.67
2019-03-19T06:56:41.259Z,7.57
2019-03-19T06:59:11.358Z,7.43
2019-03-19T07:01:41.281Z,7.33
2019-03-19T07:04:11.123Z,6.70
2019-03-19T07:06:41.218Z,9.23
2019-03-19T07:09:11.215Z,6.27
2019-03-19T07:11:40.901Z,5.37
2019-03-19T07:14:11.230Z,6.13
2019-03-19T07:16:40.964Z,5.17
2019-03-19T07:19:10.677Z,6.37
2019-03-19T07:21:40.785Z,5.87
2019-03-19T07:24:10.580Z,6.23
2019-03-19T07:26:40.308Z,6.83
2019-03-19T07:29:11.360Z,4.93
2019-03-19T07:31:41.102Z,4.30
2019-03-19T07:34:10.856Z,5.23
2019-03-19T07:36:40.927Z,3.80
2019-03-19T07:39:10.691Z,3.67
2019-03-19T07:41:40.392Z,1.40
2019-03-19T07:44:10.433Z,1.97
2019-03-19T07:46:40.270Z,1.77
2019-03-19T07:49:13.930Z,2.00
2019-03-19T07:51:44.058Z,1.30
2019-03-19T07:54:13.977Z,1.40
2019-03-19T07:56:43.679Z,1.47
2019-03-19T07:59:13.780Z,1.53
2019-03-19T08:01:43.480Z,0.90
2019-03-19T08:04:13.281Z,1.20
2019-03-19T08:06:43.512Z,0.70
2019-03-19T08:12:04.009Z,0.90
2019-03-19T08:14:33.721Z,0.50
2019-03-19T08:17:03.465Z,0.67
2019-03-19T08:19:33.547Z,0.60
2019-03-19T08:22:03.234Z,0.57
2019-03-19T08:24:33.098Z,0.50
2019-03-19T08:27:03.337Z,0.90
2019-03-19T08:29:34.746Z,0.60
2019-03-19T08:32:04.524Z,0.97
2019-03-19T08:34:36.307Z,0.70
2019-03-19T08:37:06.198Z,0.67
2019-03-19T08:39:36.678Z,0.63
2019-03-19T08:42:08.911Z,0.53
2019-03-19T08:44:38.681Z,0.77
2019-03-19T08:47:08.421Z,0.40
2019-03-19T08:49:38.448Z,0.70
2019-03-19T08:52:08.271Z,0.40
2019-03-19T08:54:38.113Z,0.50
2019-03-19T08:57:09.238Z,0.70
2019-03-19T08:59:39.049Z,0.70
2019-03-19T09:02:09.014Z,0.57
2019-03-19T09:04:39.190Z,0.70
2019-03-19T09:07:08.892Z,0.60
2019-03-19T09:09:38.909Z,0.67
2019-03-19T09:12:10.849Z,0.57
2019-03-19T09:14:40.600Z,0.60
2019-03-19T09:17:10.673Z,0.90
2019-03-19T09:19:40.525Z,0.60
2019-03-19T09:22:10.301Z,0.63
2019-03-19T09:24:40.339Z,0.70
2019-03-19T09:27:10.051Z,0.90
2019-03-19T09:29:39.881Z,0.57
2019-03-19T09:32:12.072Z,0.60
2019-03-19T09:34:42.092Z,0.60
2019-03-19T09:37:12.077Z,0.60
2019-03-19T09:39:42.266Z,0.87
2019-03-19T09:42:11.967Z,0.83
2019-03-19T09:44:41.846Z,0.90
2019-03-19T09:47:12.087Z,0.90
2019-03-19T09:49:41.838Z,1.20
2019-03-19T09:52:11.624Z,0.87
2019-03-19T09:54:42.540Z,0.70
2019-03-19T09:57:13.690Z,0.83
2019-03-19T09:59:44.568Z,0.80
2019-03-19T10:02:15.289Z,1.00
2019-03-19T10:04:45.127Z,1.27
2019-03-19T10:07:14.952Z,0.90
2019-03-19T10:09:45.124Z,0.90
2019-03-19T10:12:14.951Z,1.00
2019-03-19T10:14:44.785Z,0.87
2019-03-19T10:17:15.823Z,1.23
2019-03-19T10:19:45.643Z,0.90
2019-03-19T10:22:15.447Z,1.20
2019-03-19T10:28:25.282Z,1.37
2019-03-19T10:34:23.339Z,1.10
2019-03-19T10:49:29.785Z,1.90
2019-03-19T10:51:59.853Z,1.53
2019-03-19T10:54:29.970Z,1.97
2019-03-19T10:56:59.885Z,1.37
2019-03-19T10:59:30.583Z,1.70
2019-03-19T11:02:00.492Z,1.50
2019-03-19T11:04:30.372Z,1.53
2019-03-19T11:07:00.213Z,1.30
2019-03-19T11:09:30.523Z,1.43
2019-03-19T11:12:00.341Z,1.40
2019-03-19T11:14:31.542Z,1.50
2019-03-19T11:17:01.791Z,1.20
2019-03-19T11:19:31.600Z,1.70
2019-03-19T11:22:01.781Z,1.40
2019-03-19T11:24:32.117Z,1.10
2019-03-19T11:27:01.893Z,2.37
2019-03-19T11:29:31.696Z,1.13
2019-03-19T11:32:06.180Z,1.30
2019-03-19T11:34:36.021Z,1.30
2019-03-19T11:37:05.857Z,1.10
2019-03-19T11:39:36.999Z,1.40
2019-03-19T11:42:06.945Z,1.30
2019-03-19T11:44:36.764Z,1.47
2019-03-19T11:47:06.791Z,1.87
2019-03-19T11:49:36.661Z,1.20
2019-03-19T11:52:07.899Z,1.60
2019-03-19T11:54:38.140Z,1.30
2019-03-19T11:57:07.962Z,1.70
2019-03-19T11:59:37.799Z,1.60
2019-03-19T12:02:09.646Z,1.40
2019-03-19T12:04:39.401Z,1.20
2019-03-19T12:07:09.463Z,1.27
2019-03-19T12:09:40.205Z,1.20
2019-03-19T12:12:11.681Z,1.27
2019-03-19T12:14:41.510Z,1.10
2019-03-19T12:17:11.794Z,1.07
2019-03-19T12:19:41.658Z,1.10
2019-03-19T12:22:11.372Z,1.10
2019-03-19T12:24:41.802Z,1.00
2019-03-19T12:27:11.566Z,1.20
2019-03-19T12:29:41.302Z,1.10
2019-03-19T12:32:11.423Z,0.97
2019-03-19T12:34:41.249Z,1.37
2019-03-19T12:37:10.985Z,1.30
2019-03-19T12:39:42.617Z,1.00
2019-03-19T12:42:12.378Z,1.07
2019-03-19T12:44:42.607Z,1.20
2019-03-19T12:47:12.284Z,0.80
2019-03-19T12:49:42.170Z,1.37
2019-03-19T12:52:12.023Z,1.27
2019-03-19T12:54:41.935Z,0.90
2019-03-19T12:57:12.187Z,1.00
2019-03-19T12:59:42.715Z,1.00
2019-03-19T13:02:12.615Z,1.50
2019-03-19T13:04:42.577Z,1.03
2019-03-19T13:07:12.381Z,1.23
2019-03-19T13:09:42.222Z,0.90
2019-03-19T13:12:12.637Z,1.20
2019-03-19T13:14:42.543Z,1.20
2019-03-19T13:17:12.452Z,1.00
2019-03-19T13:19:42.724Z,0.83
2019-03-19T13:22:12.660Z,1.40
2019-03-19T13:24:42.508Z,1.60
2019-03-19T13:27:12.832Z,1.47
2019-03-19T13:29:42.786Z,0.90
2019-03-19T13:32:13.534Z,1.60
2019-03-19T13:34:43.850Z,1.20
2019-03-19T13:37:13.733Z,1.10
2019-03-19T13:39:43.554Z,1.00
2019-03-19T13:42:13.773Z,1.30
2019-03-19T13:44:43.541Z,1.10
2019-03-19T13:47:13.414Z,1.10
2019-03-19T13:49:43.658Z,1.20
2019-03-19T13:52:13.490Z,1.30
2019-03-19T13:54:43.228Z,1.57
2019-03-19T13:57:13.427Z,1.27
2019-03-19T13:59:43.254Z,1.70
2019-03-19T14:02:13.020Z,1.10
2019-03-19T14:04:45.128Z,1.17
2019-03-19T14:07:15.015Z,1.20
2019-03-19T14:09:44.822Z,1.13
2019-03-19T14:21:41.481Z,2.23
2019-03-19T14:30:38.989Z,1.40
2019-03-19T14:33:27.835Z,1.17
2019-03-19T14:45:44.593Z,1.60
2019-03-19T15:00:55.443Z,1.60
2019-03-19T15:03:34.233Z,1.37
2019-03-19T15:06:15.982Z,1.10
2019-03-19T15:08:57.509Z,1.80
2019-03-19T15:11:38.688Z,1.50
2019-03-19T15:14:19.836Z,1.60
2019-03-19T15:17:04.934Z,1.30
2019-03-19T15:19:44.461Z,1.63
2019-03-19T15:22:32.541Z,1.80
2019-03-19T15:25:08.514Z,1.20
2019-03-19T15:27:48.679Z,1.37
2019-03-19T15:30:37.589Z,1.40
2019-03-19T15:33:07.673Z,1.50
2019-03-19T15:35:37.582Z,1.43
2019-03-19T15:38:07.584Z,1.80
2019-03-19T15:40:37.764Z,1.53
2019-03-19T15:43:07.593Z,1.37
2019-03-19T15:45:37.917Z,1.43
2019-03-19T15:48:09.219Z,1.77
2019-03-19T15:50:39.074Z,1.60
2019-03-19T15:53:08.985Z,1.80
2019-03-19T15:55:43.412Z,1.90
2019-03-19T15:58:13.511Z,2.07
2019-03-19T16:00:43.421Z,1.97
2019-03-19T16:03:14.763Z,2.60
2019-03-19T16:05:44.702Z,1.80
2019-03-19T16:08:14.711Z,1.80
2019-03-19T16:10:45.082Z,1.60
2019-03-19T16:13:15.185Z,1.97
2019-03-19T16:15:45.430Z,1.73
2019-03-19T16:18:15.299Z,1.80
2019-03-19T16:20:45.741Z,1.47
2019-03-19T16:23:16.182Z,1.53
2019-03-19T16:25:46.029Z,1.47
2019-03-19T16:28:15.869Z,1.70
2019-03-19T16:30:45.673Z,1.97
2019-03-19T16:33:15.578Z,1.90
2019-03-19T16:35:45.880Z,2.17
2019-03-19T16:38:15.633Z,1.83
2019-03-19T16:40:45.501Z,1.90
2019-03-19T16:43:15.817Z,2.00
2019-03-19T16:45:45.694Z,1.63
2019-03-19T16:48:15.558Z,1.60
2019-03-19T16:50:45.793Z,1.83
2019-03-19T16:53:15.906Z,1.70
2019-03-19T16:55:45.744Z,1.90
2019-03-19T16:58:15.908Z,1.80
2019-03-19T17:00:46.328Z,2.00
2019-03-19T17:03:16.343Z,1.60
2019-03-19T17:05:47.594Z,1.67
2019-03-19T17:08:17.860Z,1.37
2019-03-19T17:10:48.928Z,1.63
2019-03-19T17:13:18.824Z,1.27
2019-03-19T17:15:50.014Z,1.93
2019-03-19T17:18:19.828Z,1.10
2019-03-19T17:20:49.635Z,1.47
2019-03-19T17:23:19.801Z,1.83
2019-03-19T17:25:49.587Z,1.43
2019-03-19T17:28:22.677Z,1.80
2019-03-19T17:33:41.860Z,1.50
2019-03-19T17:36:23.205Z,1.87
2019-03-19T17:39:12.146Z,1.97
2019-03-19T17:45:24.298Z,1.60
2019-03-19T17:48:01.072Z,1.47
2019-03-19T17:57:09.092Z,1.87
2019-03-19T18:11:58.980Z,1.50
2019-03-19T18:14:39.194Z,1.90
2019-03-19T18:17:42.153Z,1.50
2019-03-19T18:26:26.932Z,2.40
2019-03-19T18:50:49.698Z,5.37
2019-03-19T18:53:19.779Z,4.47
2019-03-19T18:55:49.666Z,5.67
2019-03-19T18:58:19.527Z,5.27
2019-03-19T19:00:49.655Z,5.70
2019-03-19T19:03:19.558Z,5.53
2019-03-19T19:05:49.407Z,6.10
2019-03-19T19:08:20.692Z,5.40
2019-03-19T19:10:50.543Z,4.77
2019-03-19T19:13:20.447Z,3.57
2019-03-19T19:15:50.679Z,5.00
2019-03-19T19:18:20.811Z,4.73
2019-03-19T19:20:50.692Z,5.57
2019-03-19T19:23:21.104Z,4.63
2019-03-19T19:25:51.064Z,4.07
2019-03-19T19:28:21.005Z,4.57
2019-03-19T19:30:51.431Z,3.73
2019-03-19T19:33:21.331Z,4.90
2019-03-19T19:35:51.248Z,4.90
2019-03-19T19:38:21.497Z,3.70
2019-03-19T19:40:51.540Z,3.23
2019-03-19T19:43:21.468Z,3.40
2019-03-19T19:45:51.633Z,3.30
2019-03-19T19:48:21.472Z,2.90
2019-03-19T19:50:51.458Z,5.37
2019-03-19T19:53:22.878Z,4.50
2019-03-19T19:55:52.851Z,4.73
2019-03-19T19:58:22.760Z,3.63
2019-03-19T20:00:54.058Z,3.50
2019-03-19T20:03:24.052Z,3.13
2019-03-19T20:05:54.022Z,3.20
2019-03-19T20:08:25.440Z,2.70
2019-03-19T20:10:55.353Z,3.70
2019-03-19T20:13:25.247Z,3.80
2019-03-19T20:15:59.209Z,3.30
2019-03-19T20:18:29.379Z,3.03
2019-03-19T20:20:59.777Z,3.00
2019-03-19T20:23:33.845Z,3.20
2019-03-19T20:26:04.901Z,2.90
2019-03-19T20:28:34.899Z,3.27
2019-03-19T20:31:05.336Z,4.17
2019-03-19T20:33:36.798Z,3.73
2019-03-19T20:36:06.733Z,3.73
2019-03-19T20:38:36.651Z,3.30
2019-03-19T20:41:06.572Z,2.30
2019-03-19T20:43:36.894Z,2.37
2019-03-19T20:46:06.811Z,2.50
2019-03-19T20:48:36.917Z,2.17
2019-03-19T20:57:17.193Z,2.50
2019-03-19T20:59:47.075Z,3.13
2019-03-19T21:02:17.087Z,2.70
2019-03-19T21:04:52.146Z,2.73
2019-03-19T21:07:22.105Z,3.13
2019-03-19T21:09:51.921Z,2.97
2019-03-19T21:12:22.255Z,3.07
2019-03-19T21:14:52.192Z,2.63
2019-03-19T21:17:22.167Z,2.73
2019-03-19T21:19:52.624Z,2.70
2019-03-19T21:22:22.459Z,2.83
2019-03-19T21:24:52.232Z,2.50
2019-03-19T21:27:22.928Z,3.47
2019-03-19T21:29:52.849Z,3.17
2019-03-19T21:32:22.869Z,3.07
2019-03-19T21:34:53.254Z,3.23
2019-03-19T21:37:24.378Z,3.50
2019-03-19T21:39:54.322Z,3.67
2019-03-19T21:42:24.926Z,3.27
2019-03-19T21:44:54.741Z,3.17
2019-03-19T21:47:24.596Z,4.40
2019-03-19T21:49:55.020Z,3.23
2019-03-19T21:52:25.199Z,3.30
2019-03-19T21:57:39.991Z,3.27
2019-03-19T22:00:20.799Z,2.87
2019-03-19T22:03:01.959Z,3.37
2019-03-19T22:05:43.694Z,3.57
2019-03-19T22:08:24.679Z,3.27
2019-03-19T22:11:06.174Z,3.43
2019-03-19T22:13:47.857Z,3.17
2019-03-19T22:16:29.423Z,2.97
2019-03-19T22:19:11.202Z,3.20
2019-03-19T22:21:52.142Z,3.10
2019-03-19T22:24:33.816Z,3.20
2019-03-19T22:27:13.560Z,3.43
2019-03-19T22:42:32.864Z,3.70
2019-03-19T22:48:30.888Z,2.80
2019-03-19T23:00:57.701Z,2.43
2019-03-19T23:03:47.098Z,2.90
2019-03-19T23:12:35.743Z,2.60
2019-03-19T23:15:36.658Z,2.40
2019-03-19T23:21:17.005Z,2.43
2019-03-19T23:23:58.237Z,2.17
2019-03-19T23:26:39.853Z,2.20
2019-03-19T23:29:21.492Z,2.13
2019-03-19T23:32:02.333Z,2.20
2019-03-19T23:34:43.815Z,2.47
2019-03-19T23:37:25.590Z,2.37
2019-03-19T23:40:07.605Z,2.83
2019-03-19T23:42:48.972Z,2.63
2019-03-19T23:45:30.500Z,2.73
2019-03-19T23:48:11.422Z,2.17
2019-03-19T23:50:52.654Z,2.23
2019-03-19T23:53:34.421Z,2.40
2019-03-19T23:56:16.099Z,2.20
2019-03-19T23:58:57.791Z,2.13
